Latest Weather Observations for Ballarat

IDV60801

Issued at 1:33 am EST Saturday 30 July 2016 (issued every 30 minutes, with the page automatically refreshed every 10 minutes)

About weather observations | Map of weather stations | Latest weather observations for VIC | Other Formats
Station Details ID: 089002 Name: BALLARAT AERODROME Lat: -37.51 Lon: 143.79 Height: 435.2 m
Data from the previous 72 hours. | See also: Recent months at Ballarat
Date/Time
EST
Temp
°C
App
Temp
°C
Dew
Point
°C
Rel
Hum
%
Delta-T
°C
Wind Press
QNH
hPa
Press
MSL
hPa
Rain since
9am
mm
Dir  Spd
km/h
Gust
km/h
Spd
kts
Gust
kts
30/01:30am 8.2 6.1 8.2 100 0.0 N 9 11 5 6 1021.7 1022.6 4.0
30/01:00am 8.3 6.2 8.3 100 0.0 N 9 11 5 6 1021.7 1022.6 4.0
30/12:30am 8.3 5.4 8.3 100 0.0 N 13 15 7 8 1021.9 1022.8 4.0
30/12:07am 8.4 6.3 8.4 100 0.0 N 9 11 5 6 1022.0 1022.9 4.0
30/12:00am 8.3 6.2 8.3 100 0.0 N 9 11 5 6 1022.0 1022.9 4.0
 
Date/Time
EST
Temp
°C
App
Temp
°C
Dew
Point
°C
Rel
Hum
%
Delta-T
°C
Wind Press
QNH
hPa
Press
MSL
hPa
Rain since
9am
mm
Dir  Spd
km/h
Gust
km/h
Spd
kts
Gust
kts
29/11:30pm 8.1 6.0 8.1 100 0.0 N 9 11 5 6 1022.0 1022.9 4.0
29/11:00pm 7.7 5.5 7.7 100 0.0 N 9 9 5 5 1022.1 1023.0 4.0
29/10:30pm 8.3 5.8 8.3 100 0.0 N 11 13 6 7 1022.2 1023.1 4.0
29/10:00pm 8.5 6.8 8.5 100 0.0 NW 7 9 4 5 1022.2 1023.1 4.0
29/09:54pm 8.4 6.3 8.4 100 0.0 NW 9 11 5 6 1022.3 1023.2 4.0
29/09:30pm 8.5 6.1 8.5 100 0.0 NW 11 13 6 7 1022.1 1023.0 4.0
29/09:17pm 8.5 6.5 8.5 100 0.0 NW 9 11 5 6 1022.1 1023.0 4.0
29/09:12pm 8.6 7.0 8.6 100 0.0 NNW 7 11 4 6 1022.0 1022.9 4.0
29/09:05pm 8.6 6.6 8.6 100 0.0 NNW 9 11 5 6 1022.0 1022.9 4.0
29/09:01pm 8.6 6.6 8.6 100 0.0 NNW 9 13 5 7 1022.0 1022.9 4.0
29/09:00pm 8.6 6.6 8.6 100 0.0 NNW 9 13 5 7 1022.0 1022.9 4.0
29/08:40pm 8.6 6.2 8.6 100 0.0 NNW 11 11 6 6 1021.9 1022.8 4.0
29/08:31pm 8.5 6.5 8.5 100 0.0 NW 9 11 5 6 1021.9 1022.8 4.0
29/08:30pm 8.5 6.5 8.5 100 0.0 NW 9 11 5 6 1021.9 1022.8 4.0
29/08:21pm 8.5 6.5 8.5 100 0.0 NW 9 9 5 5 1021.9 1022.8 4.0
29/08:00pm 8.6 6.2 8.6 100 0.0 NNW 11 11 6 6 1021.8 1022.7 4.0
29/07:30pm 8.7 6.3 8.7 100 0.0 NW 11 13 6 7 1021.7 1022.6 4.0
29/07:03pm 8.2 6.6 8.2 100 0.0 WNW 6 7 3 4 1021.5 1022.4 4.0
29/07:00pm 8.2 6.6 8.2 100 0.0 WNW 6 7 3 4 1021.4 1022.3 4.0
29/06:30pm 8.9 7.0 8.9 100 0.0 WNW 9 13 5 7 1021.1 1022.0 4.0
29/06:00pm 9.4 6.8 9.4 100 0.0 WNW 13 19 7 10 1020.9 1021.7 4.0
29/05:30pm 9.6 6.7 9.6 100 0.0 W 15 19 8 10 1020.7 1021.5 4.0
29/05:01pm 9.7 6.4 9.7 100 0.0 WNW 17 24 9 13 1020.6 1021.4 4.0
29/05:00pm 9.8 6.6 9.8 100 0.0 WNW 17 24 9 13 1020.6 1021.4 4.0
29/04:44pm 9.8 6.0 9.8 100 0.0 W 20 26 11 14 1020.4 1021.3 3.6
29/04:33pm 9.9 6.1 9.9 100 0.0 WNW 20 26 11 14 1020.4 1021.3 3.6
29/04:30pm 10.0 6.3 10.0 100 0.0 WNW 20 26 11 14 1020.3 1021.2 3.6
29/04:00pm 9.7 6.4 9.7 100 0.0 WNW 17 20 9 11 1020.2 1021.1 3.2
29/03:30pm 9.7 6.4 9.7 100 0.0 W 17 22 9 12 1020.1 1021.0 2.4
29/03:00pm 9.5 5.6 9.5 100 0.0 WNW 20 28 11 15 1020.1 1021.0 1.6
29/02:30pm 9.9 6.1 9.8 99 0.1 WNW 20 30 11 16 1019.9 1020.8 0.8
29/02:25pm 10.0 6.4 9.9 99 0.1 NW 19 24 10 13 1019.8 1020.7 0.2
29/02:00pm 10.1 5.6 10.0 99 0.1 NNW 24 30 13 16 1019.6 1020.5 0.0
29/01:30pm 10.1 5.2 9.8 98 0.2 NNW 26 32 14 17 1019.9 1020.8 0.0
29/01:15pm 10.2 5.7 10.1 99 0.1 NW 24 32 13 17 1020.2 1021.1 0.0
29/01:00pm 9.7 4.3 9.6 99 0.1 NNW 28 33 15 18 1020.3 1021.2 0.0
29/12:58pm 9.7 4.3 9.6 99 0.1 NNW 28 35 15 19 1020.3 1021.2 0.0
29/12:40pm 9.9 5.0 9.8 99 0.1 NNW 26 35 14 19 1020.6 1021.4 0.0
29/12:30pm 9.4 3.6 9.3 99 0.1 NNW 30 39 16 21 1020.7 1021.5 0.0
29/12:28pm 9.4 3.6 9.3 99 0.1 NNW 30 39 16 21 1020.8 1021.6 0.0
29/12:00pm 9.5 3.7 9.4 99 0.1 NNW 30 35 16 19 1021.0 1021.9 0.0
29/11:30am 9.2 2.7 9.1 99 0.1 NNW 33 39 18 21 1021.2 1022.1 0.0
29/11:00am 9.7 3.6 9.6 99 0.1 NNW 32 41 17 22 1021.4 1022.3 0.0
29/10:53am 9.4 3.0 9.3 99 0.1 NNW 33 41 18 22 1021.5 1022.4 0.0
29/10:36am 9.4 3.2 9.3 99 0.1 NNW 32 41 17 22 1021.4 1022.3 0.0
29/10:30am 9.4 3.2 9.3 99 0.1 NNW 32 39 17 21 1021.4 1022.3 0.0
29/10:00am 9.2 2.9 9.1 99 0.1 NNW 32 39 17 21 1021.5 1022.4 0.0
29/09:30am 8.7 3.1 8.7 100 0.0 NNW 28 35 15 19 1021.6 1022.5 0.0
29/09:00am 8.3 1.8 8.3 100 0.0 N 32 39 17 21 1021.6 1022.5 0.0
29/08:30am 7.8 1.6 7.8 100 0.0 NNW 30 39 16 21 1021.6 1022.5 0.0
29/08:00am 7.5 2.4 7.5 100 0.0 N 24 30 13 16 1021.4 1022.3 0.0
29/07:31am 7.3 2.5 7.3 100 0.0 N 22 28 12 15 1021.3 1022.2 0.0
29/07:30am 7.3 2.5 7.3 100 0.0 N 22 28 12 15 1021.2 1022.1 0.0
29/07:03am 7.3 2.1 7.3 100 0.0 N 24 30 13 16 1021.2 1022.1 0.0
29/07:00am 7.3 2.1 7.3 100 0.0 N 24 30 13 16 1021.2 1022.1 0.0
29/06:30am 7.4 1.9 7.4 100 0.0 N 26 32 14 17 1021.1 1022.0 0.0
29/06:00am 7.3 2.1 7.3 100 0.0 N 24 32 13 17 1020.9 1021.7 0.0
29/05:47am 7.3 2.1 7.3 100 0.0 N 24 32 13 17 1020.9 1021.7 0.0
29/05:30am 7.2 2.0 7.2 100 0.0 N 24 32 13 17 1021.0 1021.9 0.0
29/05:00am 7.3 2.5 7.2 99 0.0 N 22 30 12 16 1020.9 1021.7 0.0
29/04:30am 7.2 2.0 7.1 99 0.0 N 24 28 13 15 1021.2 1022.1 0.0
29/04:00am 7.1 2.2 7.0 99 0.0 N 22 28 12 15 1021.0 1021.9 0.0
29/03:30am 7.0 2.1 6.9 99 0.0 N 22 30 12 16 1021.1 1022.0 0.0
29/03:00am 7.1 2.2 7.0 99 0.0 N 22 30 12 16 1021.4 1022.3 0.0
29/02:30am 7.0 2.1 6.9 99 0.0 N 22 28 12 15 1021.6 1022.5 0.0
29/02:00am 6.8 1.9 6.7 99 0.0 N 22 28 12 15 1021.6 1022.5 0.0
29/01:30am 7.1 2.2 6.8 98 0.1 N 22 26 12 14 1021.5 1022.4 0.0
29/01:00am 7.2 2.9 6.9 98 0.1 N 19 24 10 13 1022.0 1022.9 0.0
29/12:30am 7.2 3.3 6.9 98 0.1 N 17 20 9 11 1022.4 1023.3 0.0
29/12:00am 6.9 2.3 6.6 98 0.1 N 20 22 11 12 1022.5 1023.4 0.0
 
Date/Time
EST
Temp
°C
App
Temp
°C
Dew
Point
°C
Rel
Hum
%
Delta-T
°C
Wind Press
QNH
hPa
Press
MSL
hPa
Rain since
9am
mm
Dir  Spd
km/h
Gust
km/h
Spd
kts
Gust
kts
28/11:30pm 7.5 3.2 7.2 98 0.1 NNW 19 20 10 11 1022.7 1023.6 0.0
28/11:00pm 7.1 3.2 7.0 99 0.0 N 17 19 9 10 1022.6 1023.5 0.0
28/10:30pm 7.1 3.2 7.0 99 0.0 N 17 19 9 10 1023.0 1023.9 0.0
28/10:00pm 6.6 2.9 6.5 99 0.0 N 15 17 8 9 1023.1 1024.0 0.0
28/09:30pm 6.4 3.1 6.3 99 0.0 NNW 13 17 7 9 1023.2 1024.1 0.0
28/09:00pm 7.0 3.1 6.9 99 0.0 NNW 17 19 9 10 1023.3 1024.2 0.0
28/08:30pm 6.4 3.1 6.3 99 0.0 NNW 13 15 7 8 1023.3 1024.2 0.0
28/08:00pm 6.3 2.2 6.2 99 0.0 NNW 17 17 9 9 1023.3 1024.2 0.0
28/07:30pm 7.6 3.4 7.3 98 0.1 NNW 19 20 10 11 1023.3 1024.2 0.0
28/07:00pm 8.5 4.5 8.2 98 0.1 NNW 19 22 10 12 1023.3 1024.2 0.0
28/06:30pm 8.2 4.5 7.9 98 0.1 NNW 17 20 9 11 1023.3 1024.2 0.0
28/06:00pm 8.4 5.9 8.1 98 0.1 NNW 11 15 6 8 1023.1 1024.0 0.0
28/05:30pm 8.9 6.0 8.1 95 0.4 NNW 13 15 7 8 1022.8 1023.8 0.0
28/05:00pm 10.1 6.1 6.8 80 1.6 WNW 17 24 9 13 1022.8 1023.8 0.0
28/04:30pm 10.5 6.5 8.4 87 1.1 NNW 19 24 10 13 1022.7 1023.6 0.0
28/04:00pm 10.8 6.3 6.9 77 1.9 WNW 20 32 11 17 1022.8 1023.8 0.0
28/03:30pm 11.7 8.0 8.0 78 1.9 WNW 17 20 9 11 1022.8 1023.8 0.0
28/03:00pm 10.8 6.3 7.1 78 1.8 WNW 20 24 11 13 1022.8 1023.8 0.0
28/02:30pm 10.7 6.5 8.3 85 1.2 NW 20 26 11 14 1022.8 1023.8 0.0
28/02:00pm 10.5 6.1 7.6 82 1.4 NW 20 28 11 15 1023.1 1024.0 0.0
28/01:30pm 10.2 5.4 7.3 82 1.4 NW 22 28 12 15 1023.3 1024.2 0.0
28/01:00pm 10.1 4.4 6.8 80 1.6 WNW 26 33 14 18 1023.5 1024.4 0.0
28/12:30pm 10.1 4.9 7.2 82 1.4 NW 24 32 13 17 1023.8 1024.7 0.0
28/12:00pm 10.1 4.5 7.3 83 1.4 NW 26 32 14 17 1024.0 1024.9 0.0
28/11:30am 9.6 3.7 7.7 88 0.9 NW 28 35 15 19 1024.4 1025.3 0.0
28/11:00am 9.4 3.9 7.5 88 0.9 WNW 26 35 14 19 1024.6 1025.5 0.0
28/10:30am 9.1 3.1 7.1 87 1.0 WNW 28 33 15 18 1024.6 1025.5 0.0
28/10:00am 8.9 4.3 8.1 95 0.4 NW 22 30 12 16 1024.4 1025.3 0.0
28/09:30am 8.1 4.0 7.8 98 0.1 NW 19 22 10 12 1024.3 1025.2 0.0
28/09:00am 7.4 3.1 7.1 98 0.1 NW 19 22 10 12 1024.2 1025.1 0.2
28/08:30am 7.2 2.9 7.1 99 0.0 NW 19 24 10 13 1023.9 1024.8 0.2
28/08:08am 6.7 3.1 6.6 99 0.0 NW 15 19 8 10 1023.9 1024.8 0.2
28/08:00am 6.6 3.3 6.6 100 0.0 NW 13 17 7 9 1023.9 1024.8 0.2
28/07:30am 6.3 2.6 6.3 100 0.0 NW 15 17 8 9 1023.6 1024.5 0.2
28/07:12am 6.2 2.5 6.2 100 0.0 NW 15 19 8 10 1023.5 1024.4 0.2
28/07:00am 6.3 2.2 6.3 100 0.0 WNW 17 22 9 12 1023.4 1024.3 0.2
28/06:41am 6.4 2.7 6.3 99 0.0 NW 15 20 8 11 1023.3 1024.2 0.2
28/06:30am 6.5 3.2 6.4 99 0.0 WNW 13 17 7 9 1023.2 1024.1 0.2
28/06:00am 6.6 2.5 6.3 98 0.1 NW 17 20 9 11 1023.0 1023.9 0.2
28/05:30am 6.9 2.9 6.6 98 0.1 WNW 17 24 9 13 1022.5 1023.4 0.2
28/05:27am 7.0 3.0 6.7 98 0.1 WNW 17 22 9 12 1022.6 1023.5 0.2
28/05:16am 6.9 2.5 6.6 98 0.1 WNW 19 26 10 14 1022.6 1023.5 0.2
28/05:00am 7.0 2.1 6.7 98 0.1 NW 22 28 12 15 1022.3 1023.2 0.2
28/04:30am 6.7 2.6 6.4 98 0.1 NW 17 24 9 13 1022.4 1023.3 0.2
28/04:00am 7.0 1.7 6.7 98 0.1 WNW 24 35 13 19 1022.3 1023.2 0.2
28/03:30am 6.3 2.5 6.0 98 0.1 NNW 15 19 8 10 1022.2 1023.1 0.2
28/03:00am 6.5 2.4 6.2 98 0.1 NW 17 20 9 11 1022.5 1023.4 0.2
28/02:30am 6.3 2.2 6.0 98 0.1 NW 17 20 9 11 1022.6 1023.5 0.2
28/02:00am 6.3 2.5 6.0 98 0.1 NW 15 19 8 10 1022.7 1023.6 0.2
28/01:55am 6.3 2.5 6.0 98 0.1 NW 15 19 8 10 1022.7 1023.6 0.2
28/01:30am 6.4 3.0 6.1 98 0.1 NW 13 15 7 8 1022.5 1023.4 0.2
28/01:00am 6.4 3.4 6.1 98 0.1 WNW 11 15 6 8 1022.6 1023.5 0.2
28/12:30am 6.2 2.8 5.9 98 0.1 WNW 13 17 7 9 1022.5 1023.4 0.2
28/12:00am 6.2 1.7 6.1 99 0.0 WNW 19 24 10 13 1022.5 1023.4 0.2
 
Date/Time
EST
Temp
°C
App
Temp
°C
Dew
Point
°C
Rel
Hum
%
Delta-T
°C
Wind Press
QNH
hPa
Press
MSL
hPa
Rain since
9am
mm
Dir  Spd
km/h
Gust
km/h
Spd
kts
Gust
kts
27/11:30pm 6.3 1.8 6.0 98 0.1 WNW 19 24 10 13 1022.3 1023.2 0.2
27/11:00pm 6.3 1.8 6.0 98 0.1 WNW 19 22 10 12 1022.3 1023.2 0.2
27/10:30pm 6.3 1.6 6.0 98 0.1 WNW 20 24 11 13 1022.2 1023.1 0.2
27/10:00pm 6.3 1.8 6.0 98 0.1 WNW 19 24 10 13 1022.3 1023.2 0.2
27/09:30pm 6.2 1.5 5.9 98 0.1 WNW 20 32 11 17 1022.4 1023.3 0.2
27/09:02pm 5.7 1.9 5.6 99 0.0 NW 15 17 8 9 1022.6 1023.5 0.2
27/09:00pm 5.7 2.2 5.6 99 0.0 NW 13 17 7 9 1022.5 1023.4 0.2
27/08:48pm 5.9 1.3 5.8 99 0.0 W 19 28 10 15 1022.6 1023.5 0.2
27/08:43pm 5.9 1.1 5.8 99 0.0 W 20 30 11 16 1022.6 1023.5 0.2
27/08:33pm 6.0 1.2 5.7 98 0.1 W 20 33 11 18 1022.7 1023.6 0.2
27/08:30pm 6.1 1.5 5.8 98 0.1 W 19 26 10 14 1022.7 1023.6 0.2
27/08:29pm 6.1 1.5 5.8 98 0.1 W 19 26 10 14 1022.7 1023.6 0.2
27/08:00pm 6.3 2.5 6.0 98 0.1 WSW 15 22 8 12 1022.3 1023.2 0.2
27/07:30pm 6.6 2.3 5.4 92 0.5 W 17 24 9 13 1021.8 1022.7 0.2
27/07:00pm 6.4 2.3 6.1 98 0.1 W 17 22 9 12 1021.3 1022.2 0.2
27/06:30pm 6.4 1.7 6.1 98 0.1 W 20 28 11 15 1020.7 1021.5 0.2
27/06:00pm 6.2 1.7 5.9 98 0.1 W 19 22 10 12 1020.0 1020.9 0.2
27/05:30pm 6.2 1.1 5.9 98 0.1 W 22 33 12 18 1019.6 1020.5 0.2
27/05:00pm 6.9 2.0 4.9 87 0.9 WSW 20 30 11 16 1019.6 1020.5 0.2
27/04:30pm 7.1 0.4 3.9 80 1.4 WSW 28 35 15 19 1019.2 1020.1 0.2
27/04:00pm 7.4 1.4 5.2 86 1.0 WSW 26 35 14 19 1019.0 1019.9 0.2
27/03:30pm 7.3 1.7 5.3 87 0.9 WSW 24 33 13 18 1018.6 1019.4 0.2
27/03:00pm 6.5 -0.1 6.1 97 0.2 W 30 39 16 21 1018.3 1019.1 0.2
27/02:30pm 7.1 2.2 6.8 98 0.1 WSW 22 30 12 16 1017.6 1018.5 0.2
27/02:00pm 7.2 3.0 5.8 91 0.6 WSW 17 30 9 16 1017.4 1018.3 0.0
27/01:30pm 6.2 0.3 5.9 98 0.1 WSW 26 35 14 19 1017.2 1018.1 0.0
27/01:00pm 6.8 1.9 5.3 90 0.7 WSW 20 30 11 16 1017.2 1018.1 0.0
27/12:30pm 7.5 2.4 4.1 79 1.5 WSW 20 28 11 15 1016.8 1017.6 0.0
27/12:00pm 7.1 2.0 4.1 81 1.3 SW 20 32 11 17 1016.6 1017.4 0.0
27/11:30am 7.0 2.0 4.5 84 1.1 SW 20 33 11 18 1016.2 1017.0 0.0
27/11:00am 6.7 1.0 4.9 88 0.8 SW 24 39 13 21 1016.0 1016.8 0.0
27/10:30am 7.0 2.5 6.3 95 0.3 SW 19 26 10 14 1015.3 1016.2 0.0
27/10:00am 6.7 2.3 6.4 98 0.1 SW 19 30 10 16 1014.7 1015.5 0.0
27/09:32am 6.0 1.8 5.9 99 0.0 SSW 17 28 9 15 1014.4 1015.2 0.0
27/09:30am 5.8 1.6 5.7 99 0.0 SSW 17 28 9 15 1014.4 1015.2 0.0
27/09:27am 5.8 1.2 5.7 99 0.0 SSW 19 28 10 15 1014.3 1015.1 0.0
27/09:06am 5.8 0.6 5.7 99 0.0 SSW 22 41 12 22 1013.9 1014.7 0.0
27/09:00am 6.1 1.0 6.0 99 0.0 SW 22 35 12 19 1013.7 1014.5 2.2
27/08:30am 6.2 0.4 6.1 99 0.0 SSW 26 37 14 20 1012.7 1013.5 2.2
27/08:13am 6.1 0.2 6.0 99 0.0 SW 26 37 14 20 1012.3 1013.1 2.2
27/08:00am 6.3 1.3 6.3 100 0.0 SW 22 41 12 22 1011.9 1012.7 2.2
27/07:30am 6.5 1.1 6.5 100 0.0 SW 24 39 13 21 1011.0 1011.7 1.8
27/07:00am 6.5 1.5 6.5 100 0.0 WSW 22 32 12 17 1010.1 1010.9 1.6
27/06:30am 6.5 1.1 6.5 100 0.0 WSW 24 32 13 17 1009.5 1010.3 1.6
27/06:05am 6.5 1.5 6.5 100 0.0 WSW 22 30 12 16 1008.9 1009.6 1.6
27/06:00am 6.6 1.3 6.6 100 0.0 WSW 24 30 13 16 1008.8 1009.5 1.4
27/05:30am 6.4 1.4 6.4 100 0.0 W 22 32 12 17 1008.0 1008.8 1.4
27/05:04am 6.2 1.5 6.2 100 0.0 W 20 30 11 16 1007.6 1008.4 1.4
27/05:00am 6.2 1.5 6.2 100 0.0 W 20 28 11 15 1007.5 1008.3 1.4
27/04:40am 6.1 1.0 6.1 100 0.0 W 22 30 12 16 1007.2 1007.9 1.4
27/04:34am 6.1 1.0 6.1 100 0.0 W 22 32 12 17 1007.1 1007.8 1.4
27/04:30am 6.1 1.4 6.1 100 0.0 W 20 32 11 17 1007.0 1007.7 1.4
27/04:15am 6.0 0.9 6.0 100 0.0 WNW 22 28 12 15 1006.8 1007.5 1.4
27/04:11am 5.9 1.2 5.9 100 0.0 WNW 20 28 11 15 1006.7 1007.4 1.4
27/04:00am 5.8 1.6 5.8 100 0.0 WNW 17 22 9 12 1006.6 1007.3 1.4
27/03:30am 5.8 1.6 5.8 100 0.0 WNW 17 22 9 12 1006.2 1006.9 1.0
27/03:20am 5.8 1.2 5.8 100 0.0 WNW 19 22 10 12 1006.2 1006.9 1.0
27/03:00am 5.6 1.8 5.6 100 0.0 NW 15 19 8 10 1005.8 1006.6 1.0
27/02:56am 5.5 1.6 5.5 100 0.0 NNW 15 19 8 10 1005.7 1006.5 1.0
27/02:30am 5.2 1.3 5.2 100 0.0 NNW 15 17 8 9 1005.3 1006.0 1.0
27/02:00am 5.2 0.5 5.2 100 0.0 N 19 24 10 13 1005.1 1005.8 1.0
27/01:33am 5.2 0.5 5.2 100 0.0 N 19 24 10 13 1005.0 1005.7 1.0

Other Formats:

Comma delimited format used in spreadsheet applications
http://www.bom.gov.au/fwo/IDV60801/IDV60801.94852.axf

JavaScript Object Notation format (JSON) in row-major order
http://www.bom.gov.au/fwo/IDV60801/IDV60801.94852.json